sensor_id;sensor_type;location;lat;lon;timestamp;P1;durP1;ratioP1;P2;durP2;ratioP2
31091;SDS011;67728;53.122;12.776;2024-03-08T00:00:09;804.00;;;255.03;;
31091;SDS011;67728;53.122;12.776;2024-03-08T00:01:42;797.20;;;254.53;;
31091;SDS011;67728;53.122;12.776;2024-03-08T00:03:15;787.83;;;236.80;;
31091;SDS011;67728;53.122;12.776;2024-03-08T00:04:46;806.80;;;237.17;;
31091;SDS011;67728;53.122;12.776;2024-03-08T00:06:17;793.80;;;231.83;;
31091;SDS011;67728;53.122;12.776;2024-03-08T00:07:49;776.30;;;231.80;;
31091;SDS011;67728;53.122;12.776;2024-03-08T00:09:19;787.63;;;238.40;;
31091;SDS011;67728;53.122;12.776;2024-03-08T00:10:53;782.93;;;241.10;;
31091;SDS011;67728;53.122;12.776;2024-03-08T00:12:24;786.20;;;233.67;;
31091;SDS011;67728;53.122;12.776;2024-03-08T00:13:55;786.17;;;241.93;;
31091;SDS011;67728;53.122;12.776;2024-03-08T00:15:27;799.67;;;238.63;;
31091;SDS011;67728;53.122;12.776;2024-03-08T00:16:59;777.87;;;234.27;;
31091;SDS011;67728;53.122;12.776;2024-03-08T00:18:31;828.10;;;247.37;;
31091;SDS011;67728;53.122;12.776;2024-03-08T00:20:02;786.73;;;241.70;;
31091;SDS011;67728;53.122;12.776;2024-03-08T00:21:38;788.93;;;240.33;;
31091;SDS011;67728;53.122;12.776;2024-03-08T00:23:08;780.60;;;234.23;;
31091;SDS011;67728;53.122;12.776;2024-03-08T00:24:40;793.37;;;242.53;;
31091;SDS011;67728;53.122;12.776;2024-03-08T00:26:12;828.13;;;244.87;;
31091;SDS011;67728;53.122;12.776;2024-03-08T00:27:44;800.33;;;240.57;;
31091;SDS011;67728;53.122;12.776;2024-03-08T00:29:15;796.03;;;239.17;;
31091;SDS011;67728;53.122;12.776;2024-03-08T00:30:47;795.63;;;230.80;;
31091;SDS011;67728;53.122;12.776;2024-03-08T00:32:18;797.50;;;237.47;;
31091;SDS011;67728;53.122;12.776;2024-03-08T00:33:49;815.33;;;240.00;;
31091;SDS011;67728;53.122;12.776;2024-03-08T00:35:20;784.13;;;237.70;;
31091;SDS011;67728;53.122;12.776;2024-03-08T00:36:52;797.60;;;242.97;;
31091;SDS011;67728;53.122;12.776;2024-03-08T00:38:23;799.43;;;237.83;;
31091;SDS011;67728;53.122;12.776;2024-03-08T00:39:55;784.17;;;234.40;;
31091;SDS011;67728;53.122;12.776;2024-03-08T00:41:27;779.27;;;232.23;;
31091;SDS011;67728;53.122;12.776;2024-03-08T00:42:59;781.63;;;231.90;;
31091;SDS011;67728;53.122;12.776;2024-03-08T00:44:30;798.90;;;238.80;;
31091;SDS011;67728;53.122;12.776;2024-03-08T00:46:01;788.07;;;233.70;;
31091;SDS011;67728;53.122;12.776;2024-03-08T00:47:32;851.13;;;235.53;;
31091;SDS011;67728;53.122;12.776;2024-03-08T00:49:04;767.27;;;226.53;;
31091;SDS011;67728;53.122;12.776;2024-03-08T00:50:36;809.67;;;234.27;;
31091;SDS011;67728;53.122;12.776;2024-03-08T00:52:07;779.47;;;231.17;;
31091;SDS011;67728;53.122;12.776;2024-03-08T00:53:39;792.93;;;229.67;;
31091;SDS011;67728;53.122;12.776;2024-03-08T00:55:09;780.93;;;230.43;;
31091;SDS011;67728;53.122;12.776;2024-03-08T00:56:43;800.20;;;234.23;;
31091;SDS011;67728;53.122;12.776;2024-03-08T00:58:16;775.30;;;226.47;;
31091;SDS011;67728;53.122;12.776;2024-03-08T00:59:47;782.63;;;236.47;;
31091;SDS011;67728;53.122;12.776;2024-03-08T01:01:18;778.93;;;233.53;;
31091;SDS011;67728;53.122;12.776;2024-03-08T01:02:50;778.60;;;232.43;;
31091;SDS011;67728;53.122;12.776;2024-03-08T01:04:20;779.83;;;228.20;;
31091;SDS011;67728;53.122;12.776;2024-03-08T01:05:53;780.93;;;232.77;;
31091;SDS011;67728;53.122;12.776;2024-03-08T01:07:24;773.57;;;224.90;;
31091;SDS011;67728;53.122;12.776;2024-03-08T01:08:55;827.93;;;226.73;;
31091;SDS011;67728;53.122;12.776;2024-03-08T01:10:26;774.00;;;193.73;;
31091;SDS011;67728;53.122;12.776;2024-03-08T01:11:59;712.30;;;180.47;;
31091;SDS011;67728;53.122;12.776;2024-03-08T01:13:31;704.63;;;180.20;;
31091;SDS011;67728;53.122;12.776;2024-03-08T01:15:03;703.93;;;179.43;;
31091;SDS011;67728;53.122;12.776;2024-03-08T01:16:34;783.30;;;231.37;;
31091;SDS011;67728;53.122;12.776;2024-03-08T01:18:05;776.47;;;227.67;;
31091;SDS011;67728;53.122;12.776;2024-03-08T01:19:36;781.37;;;231.93;;
31091;SDS011;67728;53.122;12.776;2024-03-08T01:21:08;774.80;;;228.83;;
31091;SDS011;67728;53.122;12.776;2024-03-08T01:22:40;787.40;;;228.03;;
31091;SDS011;67728;53.122;12.776;2024-03-08T01:24:12;776.47;;;225.43;;
31091;SDS011;67728;53.122;12.776;2024-03-08T01:25:42;783.90;;;225.37;;
31091;SDS011;67728;53.122;12.776;2024-03-08T01:27:16;777.10;;;221.80;;
31091;SDS011;67728;53.122;12.776;2024-03-08T01:28:46;804.57;;;233.87;;
31091;SDS011;67728;53.122;12.776;2024-03-08T01:30:18;778.57;;;225.10;;
31091;SDS011;67728;53.122;12.776;2024-03-08T01:31:49;776.83;;;224.83;;
31091;SDS011;67728;53.122;12.776;2024-03-08T01:33:22;783.97;;;228.63;;
31091;SDS011;67728;53.122;12.776;2024-03-08T01:34:55;794.60;;;230.83;;
31091;SDS011;67728;53.122;12.776;2024-03-08T01:36:27;776.17;;;207.53;;
31091;SDS011;67728;53.122;12.776;2024-03-08T01:37:57;805.93;;;225.90;;
31091;SDS011;67728;53.122;12.776;2024-03-08T01:39:29;779.47;;;226.93;;
31091;SDS011;67728;53.122;12.776;2024-03-08T01:41:00;788.70;;;226.37;;
31091;SDS011;67728;53.122;12.776;2024-03-08T01:42:33;779.00;;;198.03;;
31091;SDS011;67728;53.122;12.776;2024-03-08T01:44:03;816.93;;;201.53;;
31091;SDS011;67728;53.122;12.776;2024-03-08T01:45:37;773.37;;;195.27;;
31091;SDS011;67728;53.122;12.776;2024-03-08T01:47:08;773.87;;;196.63;;
31091;SDS011;67728;53.122;12.776;2024-03-08T01:48:39;820.97;;;223.83;;
31091;SDS011;67728;53.122;12.776;2024-03-08T01:50:11;805.30;;;231.63;;
31091;SDS011;67728;53.122;12.776;2024-03-08T01:51:43;808.17;;;230.00;;
31091;SDS011;67728;53.122;12.776;2024-03-08T01:53:14;805.90;;;231.60;;
31091;SDS011;67728;53.122;12.776;2024-03-08T01:54:46;817.23;;;234.53;;
31091;SDS011;67728;53.122;12.776;2024-03-08T01:56:17;808.90;;;221.73;;
31091;SDS011;67728;53.122;12.776;2024-03-08T01:57:50;782.43;;;201.77;;
31091;SDS011;67728;53.122;12.776;2024-03-08T01:59:21;792.30;;;198.93;;
31091;SDS011;67728;53.122;12.776;2024-03-08T02:00:53;766.60;;;195.70;;
31091;SDS011;67728;53.122;12.776;2024-03-08T02:02:24;766.37;;;197.20;;
31091;SDS011;67728;53.122;12.776;2024-03-08T02:03:57;767.83;;;196.17;;
31091;SDS011;67728;53.122;12.776;2024-03-08T02:05:27;832.37;;;198.70;;
31091;SDS011;67728;53.122;12.776;2024-03-08T02:06:59;762.07;;;190.03;;
31091;SDS011;67728;53.122;12.776;2024-03-08T02:08:30;767.77;;;193.63;;
31091;SDS011;67728;53.122;12.776;2024-03-08T02:10:02;776.33;;;190.80;;
31091;SDS011;67728;53.122;12.776;2024-03-08T02:11:33;774.23;;;188.53;;
31091;SDS011;67728;53.122;12.776;2024-03-08T02:13:07;773.97;;;190.23;;
31091;SDS011;67728;53.122;12.776;2024-03-08T02:14:38;762.43;;;187.43;;
31091;SDS011;67728;53.122;12.776;2024-03-08T02:16:11;771.37;;;192.20;;
31091;SDS011;67728;53.122;12.776;2024-03-08T02:17:41;767.03;;;187.67;;
31091;SDS011;67728;53.122;12.776;2024-03-08T02:19:13;799.60;;;194.63;;
31091;SDS011;67728;53.122;12.776;2024-03-08T02:20:45;803.77;;;200.33;;
31091;SDS011;67728;53.122;12.776;2024-03-08T02:22:17;761.57;;;192.63;;
31091;SDS011;67728;53.122;12.776;2024-03-08T02:23:48;765.93;;;197.07;;
31091;SDS011;67728;53.122;12.776;2024-03-08T02:25:22;773.40;;;187.67;;
31091;SDS011;67728;53.122;12.776;2024-03-08T02:26:52;775.67;;;198.83;;
31091;SDS011;67728;53.122;12.776;2024-03-08T02:28:25;779.60;;;199.30;;
31091;SDS011;67728;53.122;12.776;2024-03-08T02:29:56;817.33;;;226.13;;
31091;SDS011;67728;53.122;12.776;2024-03-08T02:31:28;845.70;;;227.97;;
31091;SDS011;67728;53.122;12.776;2024-03-08T02:32:58;792.30;;;208.53;;
31091;SDS011;67728;53.122;12.776;2024-03-08T02:34:31;785.87;;;201.83;;
31091;SDS011;67728;53.122;12.776;2024-03-08T02:36:03;715.00;;;158.27;;
31091;SDS011;67728;53.122;12.776;2024-03-08T02:37:36;767.43;;;191.53;;
31091;SDS011;67728;53.122;12.776;2024-03-08T02:39:08;766.87;;;190.33;;
31091;SDS011;67728;53.122;12.776;2024-03-08T02:40:40;771.03;;;193.60;;
31091;SDS011;67728;53.122;12.776;2024-03-08T02:42:11;778.87;;;192.93;;
31091;SDS011;67728;53.122;12.776;2024-03-08T02:43:43;762.73;;;191.07;;
31091;SDS011;67728;53.122;12.776;2024-03-08T02:45:15;761.73;;;194.83;;
31091;SDS011;67728;53.122;12.776;2024-03-08T02:46:47;760.30;;;194.63;;
31091;SDS011;67728;53.122;12.776;2024-03-08T02:48:18;760.30;;;187.97;;
31091;SDS011;67728;53.122;12.776;2024-03-08T02:49:49;761.90;;;186.70;;
31091;SDS011;67728;53.122;12.776;2024-03-08T02:51:22;766.30;;;187.80;;
31091;SDS011;67728;53.122;12.776;2024-03-08T02:52:56;757.13;;;188.00;;
31091;SDS011;67728;53.122;12.776;2024-03-08T02:54:27;807.13;;;193.10;;
31091;SDS011;67728;53.122;12.776;2024-03-08T02:55:58;690.30;;;147.07;;
31091;SDS011;67728;53.122;12.776;2024-03-08T02:57:29;723.80;;;160.03;;
31091;SDS011;67728;53.122;12.776;2024-03-08T02:59:00;755.63;;;187.00;;
31091;SDS011;67728;53.122;12.776;2024-03-08T03:00:31;752.50;;;181.47;;
31091;SDS011;67728;53.122;12.776;2024-03-08T03:02:04;749.00;;;178.00;;
31091;SDS011;67728;53.122;12.776;2024-03-08T03:03:35;770.83;;;190.33;;
31091;SDS011;67728;53.122;12.776;2024-03-08T03:05:07;751.63;;;187.13;;
31091;SDS011;67728;53.122;12.776;2024-03-08T03:06:41;744.83;;;178.83;;
31091;SDS011;67728;53.122;12.776;2024-03-08T03:08:12;746.20;;;181.93;;
31091;SDS011;67728;53.122;12.776;2024-03-08T03:09:43;769.83;;;188.53;;
31091;SDS011;67728;53.122;12.776;2024-03-08T03:11:15;755.27;;;182.70;;
31091;SDS011;67728;53.122;12.776;2024-03-08T03:12:47;753.17;;;183.77;;
31091;SDS011;67728;53.122;12.776;2024-03-08T03:14:20;709.10;;;149.77;;
31091;SDS011;67728;53.122;12.776;2024-03-08T03:15:50;752.63;;;186.43;;
31091;SDS011;67728;53.122;12.776;2024-03-08T03:17:22;751.10;;;185.63;;
31091;SDS011;67728;53.122;12.776;2024-03-08T03:18:54;731.87;;;168.07;;
31091;SDS011;67728;53.122;12.776;2024-03-08T03:20:27;803.87;;;188.60;;
31091;SDS011;67728;53.122;12.776;2024-03-08T03:22:03;782.50;;;187.00;;
31091;SDS011;67728;53.122;12.776;2024-03-08T03:23:36;773.30;;;184.73;;
31091;SDS011;67728;53.122;12.776;2024-03-08T03:25:07;757.97;;;187.97;;
31091;SDS011;67728;53.122;12.776;2024-03-08T03:26:40;764.30;;;191.07;;
31091;SDS011;67728;53.122;12.776;2024-03-08T03:28:10;768.80;;;191.67;;
31091;SDS011;67728;53.122;12.776;2024-03-08T03:29:44;773.67;;;193.60;;
31091;SDS011;67728;53.122;12.776;2024-03-08T03:31:15;761.77;;;191.10;;
31091;SDS011;67728;53.122;12.776;2024-03-08T03:32:48;809.80;;;194.63;;
31091;SDS011;67728;53.122;12.776;2024-03-08T03:34:20;787.97;;;200.33;;
31091;SDS011;67728;53.122;12.776;2024-03-08T03:35:52;784.93;;;200.40;;
31091;SDS011;67728;53.122;12.776;2024-03-08T03:37:24;788.73;;;202.60;;
31091;SDS011;67728;53.122;12.776;2024-03-08T03:38:56;772.83;;;200.23;;
31091;SDS011;67728;53.122;12.776;2024-03-08T03:40:37;786.60;;;195.60;;
31091;SDS011;67728;53.122;12.776;2024-03-08T03:42:09;768.67;;;204.50;;
31091;SDS011;67728;53.122;12.776;2024-03-08T03:43:40;769.93;;;198.83;;
31091;SDS011;67728;53.122;12.776;2024-03-08T03:45:12;754.40;;;187.27;;
31091;SDS011;67728;53.122;12.776;2024-03-08T03:46:44;759.23;;;185.77;;
31091;SDS011;67728;53.122;12.776;2024-03-08T03:48:16;684.37;;;144.23;;
31091;SDS011;67728;53.122;12.776;2024-03-08T03:49:46;708.87;;;146.67;;
31091;SDS011;67728;53.122;12.776;2024-03-08T03:51:18;696.13;;;143.37;;
31091;SDS011;67728;53.122;12.776;2024-03-08T03:52:51;662.33;;;136.53;;
31091;SDS011;67728;53.122;12.776;2024-03-08T03:54:23;664.87;;;140.00;;
31091;SDS011;67728;53.122;12.776;2024-03-08T03:55:53;675.27;;;137.87;;
31091;SDS011;67728;53.122;12.776;2024-03-08T03:57:25;671.53;;;140.80;;
31091;SDS011;67728;53.122;12.776;2024-03-08T03:58:56;672.00;;;144.83;;
31091;SDS011;67728;53.122;12.776;2024-03-08T04:00:27;673.83;;;140.77;;
31091;SDS011;67728;53.122;12.776;2024-03-08T04:01:58;709.00;;;148.93;;
31091;SDS011;67728;53.122;12.776;2024-03-08T04:03:30;675.53;;;141.93;;
31091;SDS011;67728;53.122;12.776;2024-03-08T04:05:00;692.07;;;146.13;;
31091;SDS011;67728;53.122;12.776;2024-03-08T04:06:32;747.23;;;176.87;;
31091;SDS011;67728;53.122;12.776;2024-03-08T04:08:04;758.30;;;180.87;;
31091;SDS011;67728;53.122;12.776;2024-03-08T04:09:36;768.40;;;183.30;;
31091;SDS011;67728;53.122;12.776;2024-03-08T04:11:07;744.47;;;179.97;;
31091;SDS011;67728;53.122;12.776;2024-03-08T04:12:38;768.13;;;181.97;;
31091;SDS011;67728;53.122;12.776;2024-03-08T04:14:09;761.53;;;177.83;;
31091;SDS011;67728;53.122;12.776;2024-03-08T04:15:41;746.57;;;175.17;;
31091;SDS011;67728;53.122;12.776;2024-03-08T04:17:14;737.83;;;165.97;;
31091;SDS011;67728;53.122;12.776;2024-03-08T04:18:45;754.10;;;165.90;;
31091;SDS011;67728;53.122;12.776;2024-03-08T04:20:17;758.20;;;176.17;;
31091;SDS011;67728;53.122;12.776;2024-03-08T04:21:48;743.40;;;175.70;;
31091;SDS011;67728;53.122;12.776;2024-03-08T04:23:21;763.57;;;179.70;;
31091;SDS011;67728;53.122;12.776;2024-03-08T04:24:51;792.20;;;181.50;;
31091;SDS011;67728;53.122;12.776;2024-03-08T04:26:23;747.80;;;180.07;;
31091;SDS011;67728;53.122;12.776;2024-03-08T04:27:54;743.67;;;175.37;;
31091;SDS011;67728;53.122;12.776;2024-03-08T04:29:25;744.60;;;181.93;;
31091;SDS011;67728;53.122;12.776;2024-03-08T04:30:57;742.70;;;179.07;;
31091;SDS011;67728;53.122;12.776;2024-03-08T04:32:30;741.63;;;174.07;;
31091;SDS011;67728;53.122;12.776;2024-03-08T04:34:02;765.00;;;176.30;;
31091;SDS011;67728;53.122;12.776;2024-03-08T04:35:35;754.60;;;181.87;;
31091;SDS011;67728;53.122;12.776;2024-03-08T04:37:05;752.90;;;180.43;;
31091;SDS011;67728;53.122;12.776;2024-03-08T04:38:42;748.57;;;181.70;;
31091;SDS011;67728;53.122;12.776;2024-03-08T04:40:13;751.43;;;176.30;;
31091;SDS011;67728;53.122;12.776;2024-03-08T04:41:44;749.77;;;178.07;;
31091;SDS011;67728;53.122;12.776;2024-03-08T04:43:16;743.57;;;176.30;;
31091;SDS011;67728;53.122;12.776;2024-03-08T04:44:48;804.73;;;178.13;;
31091;SDS011;67728;53.122;12.776;2024-03-08T04:46:20;764.80;;;181.53;;
31091;SDS011;67728;53.122;12.776;2024-03-08T04:47:51;742.33;;;170.33;;
31091;SDS011;67728;53.122;12.776;2024-03-08T04:49:22;747.07;;;178.20;;
31091;SDS011;67728;53.122;12.776;2024-03-08T04:50:54;748.00;;;181.40;;
31091;SDS011;67728;53.122;12.776;2024-03-08T04:52:25;758.17;;;180.07;;
31091;SDS011;67728;53.122;12.776;2024-03-08T04:53:59;750.03;;;180.53;;
31091;SDS011;67728;53.122;12.776;2024-03-08T04:55:30;780.77;;;177.27;;
31091;SDS011;67728;53.122;12.776;2024-03-08T04:57:02;741.87;;;172.20;;
31091;SDS011;67728;53.122;12.776;2024-03-08T04:58:35;752.50;;;175.07;;
31091;SDS011;67728;53.122;12.776;2024-03-08T05:00:07;792.53;;;181.03;;
31091;SDS011;67728;53.122;12.776;2024-03-08T05:01:41;735.73;;;168.70;;
31091;SDS011;67728;53.122;12.776;2024-03-08T05:03:13;746.57;;;176.67;;
31091;SDS011;67728;53.122;12.776;2024-03-08T05:04:44;752.93;;;171.30;;
31091;SDS011;67728;53.122;12.776;2024-03-08T05:06:15;736.90;;;168.03;;
31091;SDS011;67728;53.122;12.776;2024-03-08T05:07:46;735.10;;;172.30;;
31091;SDS011;67728;53.122;12.776;2024-03-08T05:09:19;748.70;;;173.87;;
31091;SDS011;67728;53.122;12.776;2024-03-08T05:10:50;735.40;;;168.93;;
31091;SDS011;67728;53.122;12.776;2024-03-08T05:12:21;739.60;;;174.77;;
31091;SDS011;67728;53.122;12.776;2024-03-08T05:13:52;739.17;;;174.07;;
31091;SDS011;67728;53.122;12.776;2024-03-08T05:15:24;755.93;;;174.30;;
31091;SDS011;67728;53.122;12.776;2024-03-08T05:16:54;740.17;;;174.87;;
31091;SDS011;67728;53.122;12.776;2024-03-08T05:18:26;739.37;;;170.03;;
31091;SDS011;67728;53.122;12.776;2024-03-08T05:19:58;776.00;;;179.70;;
31091;SDS011;67728;53.122;12.776;2024-03-08T05:21:30;742.73;;;176.07;;
31091;SDS011;67728;53.122;12.776;2024-03-08T05:23:00;742.47;;;175.23;;
31091;SDS011;67728;53.122;12.776;2024-03-08T05:24:34;744.37;;;170.20;;
31091;SDS011;67728;53.122;12.776;2024-03-08T05:26:05;755.63;;;175.07;;
31091;SDS011;67728;53.122;12.776;2024-03-08T05:27:37;751.80;;;179.53;;
31091;SDS011;67728;53.122;12.776;2024-03-08T05:29:08;751.90;;;183.37;;
31091;SDS011;67728;53.122;12.776;2024-03-08T05:30:40;798.00;;;181.77;;
31091;SDS011;67728;53.122;12.776;2024-03-08T05:32:11;830.67;;;186.90;;
31091;SDS011;67728;53.122;12.776;2024-03-08T05:33:42;871.73;;;190.83;;
31091;SDS011;67728;53.122;12.776;2024-03-08T05:35:13;1052.53;;;207.90;;
31091;SDS011;67728;53.122;12.776;2024-03-08T05:36:46;954.10;;;200.43;;
31091;SDS011;67728;53.122;12.776;2024-03-08T05:38:17;767.33;;;191.50;;
31091;SDS011;67728;53.122;12.776;2024-03-08T05:39:51;768.87;;;194.63;;
31091;SDS011;67728;53.122;12.776;2024-03-08T05:41:22;717.77;;;158.03;;
31091;SDS011;67728;53.122;12.776;2024-03-08T05:42:53;786.07;;;193.97;;
31091;SDS011;67728;53.122;12.776;2024-03-08T05:44:24;772.63;;;191.03;;
31091;SDS011;67728;53.122;12.776;2024-03-08T05:45:58;764.20;;;190.27;;
31091;SDS011;67728;53.122;12.776;2024-03-08T05:47:29;750.37;;;175.23;;
31091;SDS011;67728;53.122;12.776;2024-03-08T05:49:00;753.57;;;171.40;;
31091;SDS011;67728;53.122;12.776;2024-03-08T05:50:35;757.23;;;194.23;;
31091;SDS011;67728;53.122;12.776;2024-03-08T05:52:06;771.97;;;211.87;;
31091;SDS011;67728;53.122;12.776;2024-03-08T05:53:37;773.57;;;198.37;;
31091;SDS011;67728;53.122;12.776;2024-03-08T05:55:10;786.37;;;188.53;;
31091;SDS011;67728;53.122;12.776;2024-03-08T05:56:44;764.03;;;202.90;;
31091;SDS011;67728;53.122;12.776;2024-03-08T05:58:17;776.43;;;212.80;;
31091;SDS011;67728;53.122;12.776;2024-03-08T05:59:48;781.03;;;225.43;;
31091;SDS011;67728;53.122;12.776;2024-03-08T06:01:19;774.70;;;219.97;;
31091;SDS011;67728;53.122;12.776;2024-03-08T06:02:51;775.00;;;217.23;;
31091;SDS011;67728;53.122;12.776;2024-03-08T06:04:22;770.03;;;222.50;;
31091;SDS011;67728;53.122;12.776;2024-03-08T06:05:54;764.37;;;215.13;;
31091;SDS011;67728;53.122;12.776;2024-03-08T06:07:26;766.80;;;220.47;;
31091;SDS011;67728;53.122;12.776;2024-03-08T06:08:58;778.03;;;208.73;;
31091;SDS011;67728;53.122;12.776;2024-03-08T06:10:31;757.37;;;187.27;;
31091;SDS011;67728;53.122;12.776;2024-03-08T06:12:02;756.53;;;183.37;;
31091;SDS011;67728;53.122;12.776;2024-03-08T06:13:34;761.97;;;189.27;;
31091;SDS011;67728;53.122;12.776;2024-03-08T06:15:06;770.37;;;197.27;;
31091;SDS011;67728;53.122;12.776;2024-03-08T06:16:38;758.40;;;186.13;;
31091;SDS011;67728;53.122;12.776;2024-03-08T06:18:10;752.83;;;183.43;;
31091;SDS011;67728;53.122;12.776;2024-03-08T06:19:41;759.77;;;180.63;;
31091;SDS011;67728;53.122;12.776;2024-03-08T06:21:13;769.87;;;184.40;;
31091;SDS011;67728;53.122;12.776;2024-03-08T06:22:44;765.00;;;187.93;;
31091;SDS011;67728;53.122;12.776;2024-03-08T06:24:15;754.00;;;190.53;;
31091;SDS011;67728;53.122;12.776;2024-03-08T06:25:47;753.07;;;193.63;;
31091;SDS011;67728;53.122;12.776;2024-03-08T06:27:19;771.70;;;189.03;;
31091;SDS011;67728;53.122;12.776;2024-03-08T06:28:49;748.53;;;185.23;;
31091;SDS011;67728;53.122;12.776;2024-03-08T06:30:22;795.93;;;188.60;;
31091;SDS011;67728;53.122;12.776;2024-03-08T06:31:53;749.30;;;177.00;;
31091;SDS011;67728;53.122;12.776;2024-03-08T06:33:24;748.67;;;182.90;;
31091;SDS011;67728;53.122;12.776;2024-03-08T06:34:56;755.00;;;189.10;;
31091;SDS011;67728;53.122;12.776;2024-03-08T06:36:27;752.00;;;182.30;;
31091;SDS011;67728;53.122;12.776;2024-03-08T06:37:58;756.20;;;183.60;;
31091;SDS011;67728;53.122;12.776;2024-03-08T06:39:29;758.13;;;186.30;;
31091;SDS011;67728;53.122;12.776;2024-03-08T06:41:03;753.17;;;183.57;;
31091;SDS011;67728;53.122;12.776;2024-03-08T06:42:34;761.57;;;188.50;;
31091;SDS011;67728;53.122;12.776;2024-03-08T06:44:05;754.50;;;185.70;;
31091;SDS011;67728;53.122;12.776;2024-03-08T06:45:38;819.83;;;189.13;;
31091;SDS011;67728;53.122;12.776;2024-03-08T06:47:09;753.50;;;181.33;;
31091;SDS011;67728;53.122;12.776;2024-03-08T06:48:40;795.03;;;212.57;;
31091;SDS011;67728;53.122;12.776;2024-03-08T06:50:12;759.87;;;188.03;;
31091;SDS011;67728;53.122;12.776;2024-03-08T06:51:42;767.13;;;203.50;;
31091;SDS011;67728;53.122;12.776;2024-03-08T06:53:14;762.10;;;204.87;;
31091;SDS011;67728;53.122;12.776;2024-03-08T06:54:45;765.67;;;198.13;;
31091;SDS011;67728;53.122;12.776;2024-03-08T06:56:18;762.63;;;202.53;;
31091;SDS011;67728;53.122;12.776;2024-03-08T06:57:49;765.67;;;214.10;;
31091;SDS011;67728;53.122;12.776;2024-03-08T06:59:21;783.13;;;217.97;;
31091;SDS011;67728;53.122;12.776;2024-03-08T07:00:52;765.30;;;220.07;;
31091;SDS011;67728;53.122;12.776;2024-03-08T07:02:23;769.57;;;222.37;;
31091;SDS011;67728;53.122;12.776;2024-03-08T07:03:54;770.93;;;226.60;;
31091;SDS011;67728;53.122;12.776;2024-03-08T07:05:27;795.87;;;224.07;;
31091;SDS011;67728;53.122;12.776;2024-03-08T07:06:57;770.93;;;217.70;;
31091;SDS011;67728;53.122;12.776;2024-03-08T07:08:29;780.53;;;222.90;;
31091;SDS011;67728;53.122;12.776;2024-03-08T07:09:59;779.33;;;200.93;;
31091;SDS011;67728;53.122;12.776;2024-03-08T07:11:32;782.23;;;204.83;;
31091;SDS011;67728;53.122;12.776;2024-03-08T07:13:04;765.03;;;207.13;;
31091;SDS011;67728;53.122;12.776;2024-03-08T07:14:36;764.73;;;198.13;;
31091;SDS011;67728;53.122;12.776;2024-03-08T07:16:10;785.40;;;225.50;;
31091;SDS011;67728;53.122;12.776;2024-03-08T07:17:42;788.73;;;228.50;;
31091;SDS011;67728;53.122;12.776;2024-03-08T07:19:14;773.10;;;217.33;;
31091;SDS011;67728;53.122;12.776;2024-03-08T07:20:46;772.20;;;210.40;;
31091;SDS011;67728;53.122;12.776;2024-03-08T07:22:17;773.40;;;213.27;;
31091;SDS011;67728;53.122;12.776;2024-03-08T07:23:49;771.80;;;207.93;;
31091;SDS011;67728;53.122;12.776;2024-03-08T07:25:39;789.20;;;208.20;;
31091;SDS011;67728;53.122;12.776;2024-03-08T07:27:13;772.00;;;222.60;;
31091;SDS011;67728;53.122;12.776;2024-03-08T07:28:43;714.77;;;169.30;;
31091;SDS011;67728;53.122;12.776;2024-03-08T07:30:15;693.60;;;158.40;;
31091;SDS011;67728;53.122;12.776;2024-03-08T07:32:04;684.73;;;158.53;;
31091;SDS011;67728;53.122;12.776;2024-03-08T07:33:48;737.53;;;156.90;;
31091;SDS011;67728;53.122;12.776;2024-03-08T07:35:20;677.50;;;153.40;;
31091;SDS011;67728;53.122;12.776;2024-03-08T07:36:52;678.67;;;160.40;;
31091;SDS011;67728;53.122;12.776;2024-03-08T07:38:23;681.53;;;161.13;;
31091;SDS011;67728;53.122;12.776;2024-03-08T07:39:54;699.17;;;162.80;;
31091;SDS011;67728;53.122;12.776;2024-03-08T07:41:26;679.17;;;165.97;;
31091;SDS011;67728;53.122;12.776;2024-03-08T07:43:00;683.77;;;161.77;;
31091;SDS011;67728;53.122;12.776;2024-03-08T07:44:32;680.50;;;163.47;;
31091;SDS011;67728;53.122;12.776;2024-03-08T07:46:03;690.67;;;174.67;;
31091;SDS011;67728;53.122;12.776;2024-03-08T07:47:35;725.30;;;170.63;;
31091;SDS011;67728;53.122;12.776;2024-03-08T07:49:06;679.50;;;166.53;;
31091;SDS011;67728;53.122;12.776;2024-03-08T07:50:41;687.87;;;169.67;;
31091;SDS011;67728;53.122;12.776;2024-03-08T07:52:12;685.40;;;172.67;;
31091;SDS011;67728;53.122;12.776;2024-03-08T07:53:45;687.47;;;172.57;;
31091;SDS011;67728;53.122;12.776;2024-03-08T07:55:17;716.07;;;174.87;;
31091;SDS011;67728;53.122;12.776;2024-03-08T07:56:49;691.37;;;171.57;;
31091;SDS011;67728;53.122;12.776;2024-03-08T07:58:22;691.80;;;180.90;;
31091;SDS011;67728;53.122;12.776;2024-03-08T07:59:53;698.53;;;184.37;;
31091;SDS011;67728;53.122;12.776;2024-03-08T08:01:25;689.20;;;175.57;;
31091;SDS011;67728;53.122;12.776;2024-03-08T08:02:56;684.33;;;170.57;;
31091;SDS011;67728;53.122;12.776;2024-03-08T08:04:27;690.00;;;177.70;;
31091;SDS011;67728;53.122;12.776;2024-03-08T08:05:59;698.47;;;176.70;;
31091;SDS011;67728;53.122;12.776;2024-03-08T08:07:30;723.70;;;185.70;;
31091;SDS011;67728;53.122;12.776;2024-03-08T08:09:02;695.03;;;187.53;;
31091;SDS011;67728;53.122;12.776;2024-03-08T08:10:33;706.70;;;182.93;;
31091;SDS011;67728;53.122;12.776;2024-03-08T08:12:05;709.00;;;185.00;;
31091;SDS011;67728;53.122;12.776;2024-03-08T08:13:38;696.80;;;184.13;;
31091;SDS011;67728;53.122;12.776;2024-03-08T08:15:13;698.80;;;190.00;;
31091;SDS011;67728;53.122;12.776;2024-03-08T08:16:45;701.50;;;193.17;;
31091;SDS011;67728;53.122;12.776;2024-03-08T08:18:18;706.50;;;199.47;;
31091;SDS011;67728;53.122;12.776;2024-03-08T08:19:51;712.73;;;199.30;;
31091;SDS011;67728;53.122;12.776;2024-03-08T08:21:22;714.67;;;203.80;;
31091;SDS011;67728;53.122;12.776;2024-03-08T08:22:55;719.63;;;220.07;;
31091;SDS011;67728;53.122;12.776;2024-03-08T08:24:26;727.30;;;229.67;;
31091;SDS011;67728;53.122;12.776;2024-03-08T08:25:58;733.40;;;218.90;;
31091;SDS011;67728;53.122;12.776;2024-03-08T08:27:29;761.50;;;253.70;;
31091;SDS011;67728;53.122;12.776;2024-03-08T08:29:02;828.90;;;303.53;;
31091;SDS011;67728;53.122;12.776;2024-03-08T08:30:36;829.67;;;296.40;;
31091;SDS011;67728;53.122;12.776;2024-03-08T08:32:07;834.73;;;295.30;;
31091;SDS011;67728;53.122;12.776;2024-03-08T08:33:40;834.30;;;307.83;;